Airfield :
LOGIN :

Register | Disclaimer

   EN    FR    IT 

 










Legend :    VFR   Marginal VFR   IFR   Intensive IFR   Very Intensive IFR
Visi :
Ceiling :
>= 8 km
>= 3000ft
5 to 8 km
1000 to 3000 ft
1500m to 5 km
500 to 1000 ft
800 to 1500m
200 to 500 ft
< 800m
< 200 ft
Symbols :   Thunderstorms  Fog  Heavy snow  Heavy precipitations  Wind > 20 kt
SIGMETs :     Misc.  Thunderstorms  Icing  Turbulence  Mountain Waves  Volcanic Ashes







- Airport Elevation : 277 ft
- IATA code : JER
- Download approach charts


EGJJ - Jersey

CURRENT METAR :
  • 240950Z 16012KT 9999 FEW004 SCT006 17/15 Q1018 RE

EXPIRED METARs :
  • 240920Z 17010KT 9999 FEW006 17/15 Q1018
  • 240850Z 16011KT 9999 FEW005 17/15 Q1018
  • 240820Z 16010KT 9999 FEW006 16/15 Q1018
  • 240750Z 15009KT 9999 FEW022 16/15 Q1017
  • 240720Z 15007KT 9999 FEW021 16/15 Q1017

TAF COR TAF EGJJ
Valid from the 24 at 09:00 until the 24 at 18:00 UTC


240820Z 2409/2418 17010KT 9999 FEW005 BKN020
BECMG 2410/2412 8000 -RA BKN010
TEMPO 2412/2418 5000 RA BKN005
PROB30
TEMPO 2417/2418 2000 +RA BKN002
ATIS : +44 1534 498 073
No reported NOTAMs for that airfield.



MET'MAP, your aeronautical weather chart ! - Copyright ORBIFLY December 2007 - Disclaimer

ORBIFLY MET'MAP TEAM :

Programming & Development : Alexandra Zaïnal
Concept & Development : Baudouin d'Aumeries
Co-Development & Prog : Marc-Olivier Méhu
Technical & hardware support : Manuel Goepfert

Contact : metmap@orbifly.com




SOURCES & CREDITS :

   NOAA